Time;durP1;ratioP1;P1;durP2;ratioP2;P2;SDS_P1;SDS_P2;PMS_P1;PMS_P2;Temp;Humidity;BMP_temperature;BMP_pressure;BME280_temperature;BME280_humidity;BME280_pressure;Samples;Min_cycle;Max_cycle;Signal;HPM_P1;HPM_P2
2022/10/09 00:01:08;;;;;;;;;11.33;7.00;;;;;;;;5076000;28;45344;-75
2022/10/09 00:03:35;;;;;;;;;9.33;8.00;;;;;;;;5049398;28;47021;-77
2022/10/09 00:06:00;;;;;;;;;9.00;9.00;;;;;;;;5071993;28;45429;-76
2022/10/09 00:08:28;;;;;;;;;8.00;6.67;;;;;;;;5087684;28;45435;-77
2022/10/09 00:10:57;;;;;;;;;11.33;8.33;;;;;;;;5091867;27;45272;-76
2022/10/09 00:13:22;;;;;;;;;7.67;7.67;;;;;;;;5078735;28;46128;-75
2022/10/09 00:15:48;;;;;;;;;7.00;5.67;;;;;;;;5074943;28;45336;-77
2022/10/09 00:18:14;;;;;;;;;8.67;7.67;;;;;;;;5070985;28;45486;-76
2022/10/09 00:20:41;;;;;;;;;12.33;8.00;;;;;;;;5059317;28;45837;-77
2022/10/09 00:23:07;;;;;;;;;7.00;6.00;;;;;;;;5083669;28;45231;-79
2022/10/09 00:25:32;;;;;;;;;9.67;7.00;;;;;;;;5084490;28;45881;-77
2022/10/09 00:27:58;;;;;;;;;9.67;8.33;;;;;;;;5093103;27;45358;-77
2022/10/09 00:30:24;;;;;;;;;10.33;8.00;;;;;;;;5106867;27;45448;-76
2022/10/09 00:32:50;;;;;;;;;10.00;8.00;;;;;;;;5109991;27;45393;-75
2022/10/09 00:35:15;;;;;;;;;8.33;6.67;;;;;;;;5121547;27;44712;-77
2022/10/09 00:37:40;;;;;;;;;6.00;6.00;;;;;;;;5087772;27;45796;-76
2022/10/09 00:40:06;;;;;;;;;5.33;5.00;;;;;;;;5086575;27;46022;-76
2022/10/09 00:42:32;;;;;;;;;10.00;7.00;;;;;;;;5091977;27;46399;-77
2022/10/09 00:44:58;;;;;;;;;7.33;6.33;;;;;;;;5090862;27;45736;-75
2022/10/09 00:47:24;;;;;;;;;7.33;6.00;;;;;;;;5087149;28;45338;-76
2022/10/09 00:49:51;;;;;;;;;5.00;5.00;;;;;;;;5089397;27;45418;-77
2022/10/09 00:52:17;;;;;;;;;8.33;8.33;;;;;;;;5106288;27;45405;-77
2022/10/09 00:54:43;;;;;;;;;8.00;6.00;;;;;;;;5106178;27;45362;-77
2022/10/09 00:57:09;;;;;;;;;6.33;5.00;;;;;;;;5107761;27;44719;-77
2022/10/09 00:59:35;;;;;;;;;8.00;5.67;;;;;;;;5111780;27;45294;-76
2022/10/09 01:02:00;;;;;;;;;13.33;9.33;;;;;;;;5088551;27;46896;-76
2022/10/09 01:04:26;;;;;;;;;9.33;9.33;;;;;;;;5098644;27;45429;-75
2022/10/09 01:07:10;;;;;;;;;8.67;8.67;;;;;;;;5102704;27;45357;-76
2022/10/09 01:09:35;;;;;;;;;8.67;8.67;;;;;;;;5071833;28;46334;-77
2022/10/09 01:12:16;;;;;;;;;8.67;8.67;;;;;;;;5085582;27;46199;-77
2022/10/09 01:15:02;;;;;;;;;6.00;4.33;;;;;;;;5111776;27;45322;-77
2022/10/09 01:17:40;;;;;;;;;8.00;6.67;;;;;;;;5110722;27;45335;-77
2022/10/09 01:20:28;;;;;;;;;5.00;5.00;;;;;;;;5103953;27;45516;-77
2022/10/09 01:22:53;;;;;;;;;11.00;9.00;;;;;;;;5090913;27;47003;-76
2022/10/09 01:25:25;;;;;;;;;7.00;6.67;;;;;;;;5098720;27;45435;-78
2022/10/09 01:27:51;;;;;;;;;11.33;9.67;;;;;;;;5099559;27;45394;-77
2022/10/09 01:30:16;;;;;;;;;10.00;7.67;;;;;;;;5099388;27;45590;-77
2022/10/09 01:32:45;;;;;;;;;9.67;7.00;;;;;;;;5103904;27;45416;-76
2022/10/09 01:35:13;;;;;;;;;10.33;9.00;;;;;;;;5110381;27;45459;-77
2022/10/09 01:37:41;;;;;;;;;10.00;8.67;;;;;;;;5110912;27;45368;-76
2022/10/09 01:40:07;;;;;;;;;7.33;6.33;;;;;;;;5091593;27;45416;-77
2022/10/09 01:42:33;;;;;;;;;8.33;7.33;;;;;;;;5109943;27;45437;-76
2022/10/09 01:44:58;;;;;;;;;31.00;24.00;;;;;;;;5109994;27;44782;-76
2022/10/09 01:47:24;;;;;;;;;12.00;10.67;;;;;;;;5110384;27;45967;-76
2022/10/09 01:49:55;;;;;;;;;8.67;8.67;;;;;;;;5112284;27;45184;-76
2022/10/09 01:52:20;;;;;;;;;7.00;7.00;;;;;;;;5110665;27;45289;-78
2022/10/09 01:54:51;;;;;;;;;8.67;6.33;;;;;;;;5101529;27;44784;-75
2022/10/09 01:57:22;;;;;;;;;7.00;6.33;;;;;;;;5103912;27;45455;-78
2022/10/09 01:59:48;;;;;;;;;13.33;10.00;;;;;;;;5108296;27;45343;-77
2022/10/09 02:02:14;;;;;;;;;11.00;7.00;;;;;;;;5093799;27;45153;-77
2022/10/09 02:04:40;;;;;;;;;12.67;9.00;;;;;;;;5107170;27;45312;-76
2022/10/09 02:07:05;;;;;;;;;7.67;7.67;;;;;;;;5108910;27;45415;-76
2022/10/09 02:09:31;;;;;;;;;12.67;9.33;;;;;;;;5087037;28;45604;-76
2022/10/09 02:11:59;;;;;;;;;8.00;7.00;;;;;;;;5108227;27;45319;-77
2022/10/09 02:14:25;;;;;;;;;9.67;8.67;;;;;;;;5103224;27;45279;-77
2022/10/09 02:17:01;;;;;;;;;7.33;5.67;;;;;;;;5092727;27;45818;-78
2022/10/09 02:19:33;;;;;;;;;10.67;8.00;;;;;;;;5109359;27;45489;-76
2022/10/09 02:22:05;;;;;;;;;30.75;26.75;;;;;;;;5103732;27;45384;-78
2022/10/09 02:24:31;;;;;;;;;16.67;14.33;;;;;;;;5081708;27;45418;-77
2022/10/09 02:27:07;;;;;;;;;17.00;14.00;;;;;;;;5107339;27;45455;-74
2022/10/09 02:29:32;;;;;;;;;11.33;10.00;;;;;;;;5093942;27;45366;-76
2022/10/09 02:31:58;;;;;;;;;13.33;13.33;;;;;;;;5101182;27;45449;-77
2022/10/09 02:34:24;;;;;;;;;13.00;10.33;;;;;;;;5087727;28;45382;-78
2022/10/09 02:36:51;;;;;;;;;11.00;7.67;;;;;;;;5087877;28;45268;-75
2022/10/09 02:39:16;;;;;;;;;8.33;7.00;;;;;;;;5087661;28;45307;-76
2022/10/09 02:41:42;;;;;;;;;7.00;7.00;;;;;;;;5063967;28;46710;-76
2022/10/09 02:44:07;;;;;;;;;11.67;9.00;;;;;;;;5069155;28;45382;-76
2022/10/09 02:46:33;;;;;;;;;12.33;11.00;;;;;;;;5080721;28;45371;-76
2022/10/09 02:48:58;;;;;;;;;17.00;17.00;;;;;;;;5063764;28;45940;-75
2022/10/09 02:51:24;;;;;;;;;21.33;20.33;;;;;;;;5088017;28;45448;-78
2022/10/09 02:53:53;;;;;;;;;9.67;9.67;;;;;;;;5101912;27;45821;-76
2022/10/09 02:56:19;;;;;;;;;8.00;7.33;;;;;;;;5089076;28;45390;-79
2022/10/09 02:58:44;;;;;;;;;8.67;7.67;;;;;;;;5087717;28;44752;-77
2022/10/09 03:01:09;;;;;;;;;9.33;9.33;;;;;;;;5087912;28;45454;-77
2022/10/09 03:03:35;;;;;;;;;5.67;5.67;;;;;;;;5087679;27;45974;-76
2022/10/09 03:06:01;;;;;;;;;12.33;7.67;;;;;;;;5091580;27;45346;-76
2022/10/09 03:08:27;;;;;;;;;7.33;7.33;;;;;;;;5086821;28;45369;-77
2022/10/09 03:10:52;;;;;;;;;8.00;3.00;;;;;;;;5086940;27;45342;-75
2022/10/09 03:13:18;;;;;;;;;7.00;7.00;;;;;;;;5074620;28;45766;-75
2022/10/09 03:15:43;;;;;;;;;6.00;6.00;;;;;;;;5073219;28;45248;-76
2022/10/09 03:18:09;;;;;;;;;7.00;4.67;;;;;;;;5090238;28;45952;-77
2022/10/09 03:20:34;;;;;;;;;8.00;7.00;;;;;;;;5051474;28;46725;-76
2022/10/09 03:22:59;;;;;;;;;10.67;10.00;;;;;;;;5077866;27;45646;-77
2022/10/09 03:25:25;;;;;;;;;8.33;8.33;;;;;;;;5056919;28;45422;-75
2022/10/09 03:27:50;;;;;;;;;7.00;7.00;;;;;;;;5086881;28;45405;-76
2022/10/09 03:30:15;;;;;;;;;5.33;5.33;;;;;;;;5086201;27;45315;-76
2022/10/09 03:32:40;;;;;;;;;6.33;6.00;;;;;;;;5082738;28;45476;-75
2022/10/09 03:35:06;;;;;;;;;12.00;8.33;;;;;;;;5107934;27;45499;-76
2022/10/09 03:37:31;;;;;;;;;28.00;25.67;;;;;;;;5108465;27;45424;-75
2022/10/09 03:39:57;;;;;;;;;8.00;5.67;;;;;;;;5094202;27;47140;-76
2022/10/09 03:42:23;;;;;;;;;7.33;5.67;;;;;;;;5108509;27;44780;-77
2022/10/09 03:44:49;;;;;;;;;6.00;5.67;;;;;;;;5095611;27;44694;-77
2022/10/09 03:47:15;;;;;;;;;8.33;6.00;;;;;;;;5108971;27;45281;-77
2022/10/09 03:49:40;;;;;;;;;2.67;2.67;;;;;;;;5110295;27;45514;-76
2022/10/09 03:52:06;;;;;;;;;5.33;3.00;;;;;;;;5111417;27;45428;-77
2022/10/09 03:54:31;;;;;;;;;6.00;5.00;;;;;;;;5102061;27;45634;-76
2022/10/09 03:56:56;;;;;;;;;6.67;5.00;;;;;;;;5110024;27;45326;-76
2022/10/09 03:59:22;;;;;;;;;6.33;6.00;;;;;;;;5111865;27;45983;-77
2022/10/09 04:01:50;;;;;;;;;7.00;6.67;;;;;;;;5107846;27;45327;-75
2022/10/09 04:04:16;;;;;;;;;6.33;5.00;;;;;;;;5106661;27;45855;-76
2022/10/09 04:06:44;;;;;;;;;10.33;5.67;;;;;;;;5129229;27;45916;-81
2022/10/09 04:09:11;;;;;;;;;6.67;5.33;;;;;;;;5114191;27;46357;-80
2022/10/09 04:11:40;;;;;;;;;5.00;5.00;;;;;;;;5091157;27;45525;-77
2022/10/09 04:14:06;;;;;;;;;3.00;3.00;;;;;;;;5097320;27;45435;-75
2022/10/09 04:16:31;;;;;;;;;3.00;2.00;;;;;;;;5113047;27;45723;-75
2022/10/09 04:18:56;;;;;;;;;5.00;5.00;;;;;;;;5107954;27;45543;-75
2022/10/09 04:21:22;;;;;;;;;5.67;3.33;;;;;;;;5094954;27;45845;-75
2022/10/09 04:23:47;;;;;;;;;4.67;4.00;;;;;;;;5089506;27;45375;-79
2022/10/09 04:26:13;;;;;;;;;5.33;3.67;;;;;;;;5103193;27;45308;-75
2022/10/09 04:28:38;;;;;;;;;5.00;5.00;;;;;;;;5113465;27;45990;-76
2022/10/09 04:31:04;;;;;;;;;6.33;6.33;;;;;;;;5103460;27;45629;-77
2022/10/09 04:33:29;;;;;;;;;6.00;6.00;;;;;;;;5075635;28;44753;-77
2022/10/09 04:35:55;;;;;;;;;5.00;5.00;;;;;;;;5096575;27;45264;-76
2022/10/09 04:38:20;;;;;;;;;7.67;6.00;;;;;;;;5077315;28;45359;-76
2022/10/09 04:41:05;;;;;;;;;10.33;7.00;;;;;;;;5084087;28;45680;-74
2022/10/09 04:43:31;;;;;;;;;5.00;5.00;;;;;;;;5092046;28;44732;-76
2022/10/09 04:45:56;;;;;;;;;5.33;4.33;;;;;;;;5083478;28;45365;-77
2022/10/09 04:48:22;;;;;;;;;5.00;5.00;;;;;;;;5088624;28;45578;-76
2022/10/09 04:50:47;;;;;;;;;5.00;5.00;;;;;;;;5085397;28;45386;-77
2022/10/09 04:53:13;;;;;;;;;8.00;6.00;;;;;;;;5085032;28;45408;-76
2022/10/09 04:55:40;;;;;;;;;8.00;5.00;;;;;;;;5088140;27;45145;-78
2022/10/09 04:58:06;;;;;;;;;7.33;6.00;;;;;;;;5094951;27;45464;-76
2022/10/09 05:00:31;;;;;;;;;8.67;6.00;;;;;;;;5084972;28;44851;-75
2022/10/09 05:02:56;;;;;;;;;6.67;5.00;;;;;;;;5067382;28;45382;-78
2022/10/09 05:05:22;;;;;;;;;6.67;5.67;;;;;;;;5071487;28;45485;-79
2022/10/09 05:07:47;;;;;;;;;6.67;5.67;;;;;;;;5071554;28;45234;-78
2022/10/09 05:10:13;;;;;;;;;8.00;5.67;;;;;;;;5089847;27;45373;-77
2022/10/09 05:12:38;;;;;;;;;7.00;5.33;;;;;;;;5067208;28;45545;-77
2022/10/09 05:15:04;;;;;;;;;6.00;6.00;;;;;;;;5087432;28;44793;-74
2022/10/09 05:17:29;;;;;;;;;6.00;5.00;;;;;;;;5085841;28;46177;-78
2022/10/09 05:19:54;;;;;;;;;8.00;6.00;;;;;;;;5067907;28;45342;-77
2022/10/09 05:22:20;;;;;;;;;7.67;6.00;;;;;;;;5059463;28;45721;-78
2022/10/09 05:24:45;;;;;;;;;9.00;7.33;;;;;;;;5056046;28;45778;-78
2022/10/09 05:27:11;;;;;;;;;6.00;6.00;;;;;;;;5051465;28;46057;-75
2022/10/09 05:29:36;;;;;;;;;6.00;6.00;;;;;;;;5071230;28;45377;-78
2022/10/09 05:32:02;;;;;;;;;7.00;6.00;;;;;;;;5073094;28;45336;-77
2022/10/09 05:34:27;;;;;;;;;6.00;5.00;;;;;;;;5099474;27;45901;-78
2022/10/09 05:36:52;;;;;;;;;6.50;6.00;;;;;;;;5091359;27;45442;-76
2022/10/09 05:39:18;;;;;;;;;9.67;6.00;;;;;;;;5085788;28;44735;-77
2022/10/09 05:41:50;;;;;;;;;5.33;5.33;;;;;;;;5068650;28;45542;-78
2022/10/09 05:44:16;;;;;;;;;5.67;5.00;;;;;;;;5083363;27;45411;-80
2022/10/09 05:46:41;;;;;;;;;5.33;5.33;;;;;;;;5058282;28;46714;-79
2022/10/09 05:49:11;;;;;;;;;6.00;6.00;;;;;;;;5089288;28;45319;-81
2022/10/09 05:51:37;;;;;;;;;7.00;5.00;;;;;;;;5067922;28;45410;-75
2022/10/09 05:54:03;;;;;;;;;9.00;8.00;;;;;;;;5077392;27;47138;-77
2022/10/09 05:56:33;;;;;;;;;8.00;7.00;;;;;;;;5088198;27;46248;-77
2022/10/09 05:59:00;;;;;;;;;7.67;7.00;;;;;;;;5079167;28;45435;-79
2022/10/09 06:01:27;;;;;;;;;7.33;5.33;;;;;;;;5057071;28;45416;-76
2022/10/09 06:03:54;;;;;;;;;6.67;5.67;;;;;;;;5084419;28;45470;-77
2022/10/09 06:06:21;;;;;;;;;6.33;5.33;;;;;;;;5072870;28;45386;-76
2022/10/09 06:08:48;;;;;;;;;6.00;5.00;;;;;;;;5085538;28;45383;-76
2022/10/09 06:11:18;;;;;;;;;7.00;5.33;;;;;;;;5071535;28;45506;-82
2022/10/09 06:13:43;;;;;;;;;9.00;6.00;;;;;;;;5087423;28;45418;-80
2022/10/09 06:16:12;;;;;;;;;6.00;6.00;;;;;;;;5062268;28;47852;-80
2022/10/09 06:18:42;;;;;;;;;9.00;6.00;;;;;;;;5096137;27;44792;-87
2022/10/09 06:21:08;;;;;;;;;6.00;6.00;;;;;;;;5080542;28;44826;-80
2022/10/09 06:23:33;;;;;;;;;7.67;6.67;;;;;;;;5089247;28;45593;-81
2022/10/09 06:26:25;;;;;;;;;9.33;5.67;;;;;;;;5073071;28;46555;-79
2022/10/09 06:28:52;;;;;;;;;8.67;6.67;;;;;;;;5062334;28;45432;-80
2022/10/09 06:31:19;;;;;;;;;6.00;5.00;;;;;;;;5104794;27;44902;-80
2022/10/09 06:33:49;;;;;;;;;7.00;5.00;;;;;;;;5087985;27;45913;-79
2022/10/09 06:36:25;;;;;;;;;6.67;5.33;;;;;;;;5080438;27;45684;-79
2022/10/09 06:38:52;;;;;;;;;7.00;6.67;;;;;;;;5096026;27;45363;-80
2022/10/09 06:41:19;;;;;;;;;5.00;5.00;;;;;;;;5105502;27;45330;-79
2022/10/09 06:43:52;;;;;;;;;8.67;6.33;;;;;;;;5108536;27;45418;-80
2022/10/09 06:46:18;;;;;;;;;8.00;8.00;;;;;;;;5111646;27;45897;-80
2022/10/09 06:48:45;;;;;;;;;7.00;6.00;;;;;;;;5103928;27;44849;-76
2022/10/09 06:51:12;;;;;;;;;7.67;6.00;;;;;;;;5092049;27;45395;-77
2022/10/09 06:53:38;;;;;;;;;8.67;6.00;;;;;;;;5108766;27;45535;-79
2022/10/09 06:56:06;;;;;;;;;6.00;6.00;;;;;;;;5098345;27;46141;-77
2022/10/09 06:58:31;;;;;;;;;5.67;5.00;;;;;;;;5089423;27;44828;-80
2022/10/09 07:01:06;;;;;;;;;13.00;10.67;;;;;;;;5094530;27;45379;-81
2022/10/09 07:03:32;;;;;;;;;7.33;6.00;;;;;;;;5089544;27;45312;-80
2022/10/09 07:06:09;;;;;;;;;8.33;8.00;;;;;;;;5094486;27;46398;-81
2022/10/09 07:08:35;;;;;;;;;12.33;7.67;;;;;;;;5107817;27;46054;-78
2022/10/09 07:11:08;;;;;;;;;30.00;23.67;;;;;;;;5086284;28;45431;-82
2022/10/09 07:13:33;;;;;;;;;8.00;7.67;;;;;;;;5103503;27;44824;-78
2022/10/09 07:15:59;;;;;;;;;7.67;7.67;;;;;;;;5105089;27;46139;-79
2022/10/09 07:18:24;;;;;;;;;7.00;6.00;;;;;;;;5112647;27;45346;-82
2022/10/09 07:20:55;;;;;;;;;9.00;7.00;;;;;;;;5112364;27;45661;-79
2022/10/09 07:23:20;;;;;;;;;11.00;9.33;;;;;;;;5090635;27;46980;-77
2022/10/09 07:25:47;;;;;;;;;10.00;8.33;;;;;;;;5109151;27;45691;-78
2022/10/09 07:28:13;;;;;;;;;7.67;6.00;;;;;;;;5093126;27;45643;-78
2022/10/09 07:30:38;;;;;;;;;11.00;8.00;;;;;;;;5089721;27;44927;-79
2022/10/09 07:33:04;;;;;;;;;11.00;8.67;;;;;;;;5107973;27;45378;-80
2022/10/09 07:35:29;;;;;;;;;11.00;7.00;;;;;;;;5104863;27;47128;-82
2022/10/09 07:37:54;;;;;;;;;8.67;7.67;;;;;;;;5091911;27;45399;-80
2022/10/09 07:40:20;;;;;;;;;12.33;8.00;;;;;;;;5091394;27;45320;-83
2022/10/09 07:42:45;;;;;;;;;10.00;9.00;;;;;;;;5111071;27;45355;-81
2022/10/09 07:45:11;;;;;;;;;10.00;9.67;;;;;;;;5097296;27;45788;-82
2022/10/09 07:47:37;;;;;;;;;9.33;8.33;;;;;;;;5110424;27;45357;-82
2022/10/09 07:50:03;;;;;;;;;8.00;8.00;;;;;;;;5091007;27;45350;-81
2022/10/09 07:52:28;;;;;;;;;11.67;10.67;;;;;;;;5107981;27;45723;-79
2022/10/09 07:54:53;;;;;;;;;8.67;8.67;;;;;;;;5105567;27;45702;-75
2022/10/09 07:57:19;;;;;;;;;7.67;6.67;;;;;;;;5106429;27;45610;-82
2022/10/09 07:59:44;;;;;;;;;10.67;8.00;;;;;;;;5100218;27;45671;-81
2022/10/09 08:02:10;;;;;;;;;9.00;9.00;;;;;;;;5104542;27;44784;-82
2022/10/09 08:04:37;;;;;;;;;10.67;7.00;;;;;;;;5099018;27;45493;-82
2022/10/09 08:07:04;;;;;;;;;11.33;9.33;;;;;;;;5086038;27;44875;-80
2022/10/09 08:09:29;;;;;;;;;8.00;8.00;;;;;;;;5103183;27;45512;-80
2022/10/09 08:11:54;;;;;;;;;9.67;9.67;;;;;;;;5103475;27;44670;-82
2022/10/09 08:14:20;;;;;;;;;8.00;6.00;;;;;;;;5112829;27;45508;-82
2022/10/09 08:16:49;;;;;;;;;12.33;10.33;;;;;;;;5111715;27;45287;-86
2022/10/09 08:19:39;;;;;;;;;7.00;7.00;;;;;;;;5112379;27;45391;-87
2022/10/09 08:22:04;;;;;;;;;9.33;7.67;;;;;;;;5110326;27;45448;-77
2022/10/09 08:24:29;;;;;;;;;9.67;8.33;;;;;;;;5098615;27;45675;-80
2022/10/09 08:26:55;;;;;;;;;10.67;7.67;;;;;;;;5090491;27;45556;-81
2022/10/09 08:29:20;;;;;;;;;5.33;5.00;;;;;;;;5123055;27;45615;-80
2022/10/09 08:31:45;;;;;;;;;11.00;8.00;;;;;;;;5124980;27;45275;-77
2022/10/09 08:34:11;;;;;;;;;11.00;7.00;;;;;;;;5124155;27;45392;-82
2022/10/09 08:36:36;;;;;;;;;8.67;7.67;;;;;;;;5125083;27;44733;-76
2022/10/09 08:39:02;;;;;;;;;17.00;14.67;;;;;;;;5111721;27;45345;-82
2022/10/09 08:41:31;;;;;;;;;12.67;10.33;;;;;;;;5091709;27;44839;-77
2022/10/09 08:44:12;;;;;;;;;11.67;10.00;;;;;;;;5110979;27;45306;-78
2022/10/09 08:46:49;;;;;;;;;9.00;9.00;;;;;;;;5096067;27;45415;-80
2022/10/09 08:49:21;;;;;;;;;14.00;11.00;;;;;;;;5111228;27;45564;-77
2022/10/09 08:51:46;;;;;;;;;10.33;10.33;;;;;;;;5122341;27;45433;-76
2022/10/09 08:54:14;;;;;;;;;10.00;8.33;;;;;;;;5090624;27;46156;-77
2022/10/09 08:56:40;;;;;;;;;10.67;10.00;;;;;;;;5115888;27;44787;-77
2022/10/09 08:59:05;;;;;;;;;12.00;10.00;;;;;;;;5105152;27;45454;-78
2022/10/09 09:01:41;;;;;;;;;11.00;7.67;;;;;;;;5104906;27;44784;-78
2022/10/09 09:04:43;;;;;;;;;13.00;11.33;;;;;;;;5092529;27;47595;-78
2022/10/09 09:07:27;;;;;;;;;13.67;11.33;;;;;;;;5041084;28;45919;-83
2022/10/09 09:09:56;;;;;;;;;12.67;11.00;;;;;;;;5090028;28;45463;-80
2022/10/09 09:12:30;;;;;;;;;14.33;12.67;;;;;;;;5082785;27;45407;-76
2022/10/09 09:15:13;;;;;;;;;11.00;11.00;;;;;;;;5110594;27;45378;-81
2022/10/09 09:17:56;;;;;;;;;17.33;14.33;;;;;;;;5099021;27;45654;-79
2022/10/09 09:20:26;;;;;;;;;10.67;9.67;;;;;;;;5110518;27;45349;-80
2022/10/09 09:22:51;;;;;;;;;11.33;9.33;;;;;;;;5099521;27;45323;-77
2022/10/09 09:25:24;;;;;;;;;9.33;8.33;;;;;;;;5109051;27;45171;-76
2022/10/09 09:27:53;;;;;;;;;14.33;11.00;;;;;;;;5090826;27;45417;-76
2022/10/09 09:30:31;;;;;;;;;11.67;11.67;;;;;;;;5090803;27;45343;-76
2022/10/09 09:33:12;;;;;;;;;7.67;7.67;;;;;;;;5107622;27;45546;-76
2022/10/09 09:35:50;;;;;;;;;9.33;7.67;;;;;;;;5082878;27;47986;-80
2022/10/09 09:38:15;;;;;;;;;9.00;8.33;;;;;;;;5108404;27;45293;-80
2022/10/09 09:40:42;;;;;;;;;8.00;8.00;;;;;;;;5095758;28;45660;-81
2022/10/09 09:43:21;;;;;;;;;13.00;9.00;;;;;;;;5111676;27;46057;-79
2022/10/09 09:45:47;;;;;;;;;11.33;10.00;;;;;;;;5097909;27;45475;-80
2022/10/09 09:48:18;;;;;;;;;8.75;8.00;;;;;;;;5125649;27;44822;-81
2022/10/09 09:50:43;;;;;;;;;10.33;7.67;;;;;;;;5106741;27;44704;-79
2022/10/09 09:53:35;;;;;;;;;9.00;8.00;;;;;;;;5112133;27;45344;-79
2022/10/09 09:56:00;;;;;;;;;9.00;9.00;;;;;;;;5076878;27;47179;-81
2022/10/09 09:58:37;;;;;;;;;9.00;8.75;;;;;;;;5091028;27;45402;-77
2022/10/09 10:01:05;;;;;;;;;8.50;8.50;;;;;;;;5092346;27;45438;-77
2022/10/09 10:03:31;;;;;;;;;7.00;6.25;;;;;;;;5076683;28;45827;-78
2022/10/09 10:05:56;;;;;;;;;8.25;8.25;;;;;;;;5106800;27;46298;-77
2022/10/09 10:08:26;;;;;;;;;9.75;9.75;;;;;;;;5110278;27;45433;-82
2022/10/09 10:10:54;;;;;;;;;19.00;16.25;;;;;;;;5109074;27;45363;-78
2022/10/09 10:13:21;;;;;;;;;7.25;7.00;;;;;;;;5075550;27;45382;-79
2022/10/09 10:15:48;;;;;;;;;8.00;7.50;;;;;;;;5109736;27;45523;-78
2022/10/09 10:18:15;;;;;;;;;11.75;11.75;;;;;;;;5109992;27;45378;-79
2022/10/09 10:20:47;;;;;;;;;10.00;8.00;;;;;;;;5094905;27;45725;-82
2022/10/09 10:23:22;;;;;;;;;5.50;5.50;;;;;;;;5113414;27;45572;-78
2022/10/09 10:25:49;;;;;;;;;8.50;6.25;;;;;;;;5095579;27;45413;-79
2022/10/09 10:28:19;;;;;;;;;7.25;5.00;;;;;;;;5103080;27;45380;-82
2022/10/09 10:30:48;;;;;;;;;7.25;7.00;;;;;;;;5119169;27;45456;-83
2022/10/09 10:33:17;;;;;;;;;11.50;8.75;;;;;;;;5093709;28;45469;-82
2022/10/09 10:35:43;;;;;;;;;4.25;4.25;;;;;;;;5107034;27;45666;-79
2022/10/09 10:38:15;;;;;;;;;7.00;6.00;;;;;;;;5112728;27;44727;-78
2022/10/09 10:40:40;;;;;;;;;8.00;6.75;;;;;;;;5100800;27;45684;-78
2022/10/09 10:43:09;;;;;;;;;10.25;7.00;;;;;;;;5111017;27;45563;-82
2022/10/09 10:45:40;;;;;;;;;6.25;5.00;;;;;;;;5116648;27;45449;-81
2022/10/09 10:48:09;;;;;;;;;7.00;6.00;;;;;;;;5104675;27;45379;-78
2022/10/09 10:50:38;;;;;;;;;8.00;6.00;;;;;;;;5112488;27;44779;-78
2022/10/09 10:53:10;;;;;;;;;8.00;6.00;;;;;;;;5117570;27;44716;-82
2022/10/09 10:55:50;;;;;;;;;9.50;6.25;;;;;;;;5096580;27;47010;-82
2022/10/09 10:58:28;;;;;;;;;5.25;5.25;;;;;;;;5114490;27;45279;-81
2022/10/09 11:01:03;;;;;;;;;9.67;7.33;;;;;;;;5098561;27;45295;-80
2022/10/09 11:03:39;;;;;;;;;8.50;5.25;;;;;;;;5111257;27;45393;-81
2022/10/09 11:06:04;;;;;;;;;6.75;5.00;;;;;;;;5109414;27;45411;-77
2022/10/09 11:11:43;;;;;;;;;4.00;3.75;;;;;;;;5111583;27;44795;-82
2022/10/09 11:14:33;;;;;;;;;3.75;3.50;;;;;;;;5106753;27;45468;-83
2022/10/09 11:20:23;;;;;;;;;4.00;3.00;;;;;;;;5107321;27;44890;-82
2022/10/09 11:22:49;;;;;;;;;5.67;5.67;;;;;;;;5102456;27;45548;-81
2022/10/09 11:25:20;;;;;;;;;6.67;3.67;;;;;;;;5105062;27;45924;-83
2022/10/09 11:27:57;;;;;;;;;4.00;3.25;;;;;;;;5082120;27;45833;-83
2022/10/09 11:31:02;;;;;;;;;2.75;2.50;;;;;;;;5091628;28;45240;-82
2022/10/09 11:33:48;;;;;;;;;3.67;3.67;;;;;;;;5093851;27;45289;-84
2022/10/09 11:36:38;;;;;;;;;3.00;3.00;;;;;;;;5084003;27;45756;-84
2022/10/09 11:39:09;;;;;;;;;5.00;3.75;;;;;;;;5085985;27;46631;-82
2022/10/09 11:41:36;;;;;;;;;2.00;2.00;;;;;;;;5080137;27;45605;-84
2022/10/09 11:44:36;;;;;;;;;4.00;2.25;;;;;;;;5071934;27;45427;-80
2022/10/09 11:47:28;;;;;;;;;7.33;5.67;;;;;;;;5026882;28;45588;-78
2022/10/09 11:50:15;;;;;;;;;2.00;2.00;;;;;;;;5073116;27;46277;-79
2022/10/09 11:53:07;;;;;;;;;2.00;2.00;;;;;;;;5076368;27;45671;-78
2022/10/09 11:55:33;;;;;;;;;4.00;3.00;;;;;;;;5095686;27;45699;-80
2022/10/09 11:58:08;;;;;;;;;4.00;4.00;;;;;;;;5070902;27;46526;-80
2022/10/09 12:00:52;;;;;;;;;3.50;1.25;;;;;;;;5096706;27;46848;-82
2022/10/09 12:03:36;;;;;;;;;3.00;3.00;;;;;;;;5085840;27;45446;-80
2022/10/09 12:06:04;;;;;;;;;4.00;3.33;;;;;;;;5080852;27;45891;-80
2022/10/09 12:08:41;;;;;;;;;2.67;1.00;;;;;;;;5091587;27;45876;-80
2022/10/09 12:11:17;;;;;;;;;2.67;2.67;;;;;;;;5092240;27;46327;-77
2022/10/09 12:14:08;;;;;;;;;3.00;3.00;;;;;;;;5089111;27;45974;-78
2022/10/09 12:17:00;;;;;;;;;4.33;4.33;;;;;;;;5086905;27;45714;-83
2022/10/09 12:19:37;;;;;;;;;2.33;2.33;;;;;;;;5080538;27;46800;-79
2022/10/09 12:22:40;;;;;;;;;6.00;4.00;;;;;;;;5079184;27;46933;-80
2022/10/09 12:25:17;;;;;;;;;3.33;3.33;;;;;;;;5083612;27;45797;-80
2022/10/09 12:27:47;;;;;;;;;4.00;4.00;;;;;;;;5076237;27;45798;-80
2022/10/09 12:30:22;;;;;;;;;3.00;3.00;;;;;;;;5085330;27;45655;-79
2022/10/09 12:33:28;;;;;;;;;3.67;2.00;;;;;;;;5078224;27;47564;-77
2022/10/09 12:36:13;;;;;;;;;5.67;2.33;;;;;;;;5076971;27;45575;-79
2022/10/09 12:38:46;;;;;;;;;2.33;2.00;;;;;;;;5056748;27;45928;-79
2022/10/09 12:41:20;;;;;;;;;4.00;3.00;;;;;;;;5081892;27;45523;-79
2022/10/09 12:43:46;;;;;;;;;4.33;3.00;;;;;;;;5070448;27;47036;-79
2022/10/09 12:46:15;;;;;;;;;4.67;4.00;;;;;;;;5068136;27;45441;-78
2022/10/09 12:48:42;;;;;;;;;4.00;3.00;;;;;;;;5068738;28;45849;-78
2022/10/09 12:51:25;;;;;;;;;4.00;4.00;;;;;;;;5070034;27;45596;-79
2022/10/09 12:54:16;;;;;;;;;5.00;3.00;;;;;;;;5083523;27;45847;-80
2022/10/09 12:56:52;;;;;;;;;6.67;4.00;;;;;;;;5090112;27;45509;-79
2022/10/09 12:59:31;;;;;;;;;4.00;4.00;;;;;;;;5085416;27;45986;-78
2022/10/09 13:02:17;;;;;;;;;;;;;;;;;;;;;
2022/10/09 13:05:13;;;;;;;;;;;;;;;;;;;;;
2022/10/09 13:07:38;;;;;;;;;3.00;3.00;;;;;;;;5079431;27;71487;-80
2022/10/09 13:10:06;;;;;;;;;9.67;6.00;;;;;;;;5091134;27;45679;-80
2022/10/09 13:12:35;;;;;;;;;7.67;5.00;;;;;;;;5062337;27;45769;-81
2022/10/09 13:15:05;;;;;;;;;3.00;3.00;;;;;;;;5087452;27;45757;-80
2022/10/09 13:17:32;;;;;;;;;5.00;4.00;;;;;;;;5081923;27;45753;-78
2022/10/09 13:20:05;;;;;;;;;4.00;3.00;;;;;;;;5084072;27;45880;-79
2022/10/09 13:22:31;;;;;;;;;3.67;2.67;;;;;;;;5079037;27;46731;-76
2022/10/09 13:24:58;;;;;;;;;3.33;3.33;;;;;;;;5084359;27;45550;-79
2022/10/09 13:27:28;;;;;;;;;3.33;2.00;;;;;;;;5089225;27;45483;-78
2022/10/09 13:29:54;;;;;;;;;4.00;3.67;;;;;;;;5070065;27;45787;-79
2022/10/09 13:32:22;;;;;;;;;4.67;2.33;;;;;;;;5086067;27;45722;-78
2022/10/09 13:34:48;;;;;;;;;2.67;2.67;;;;;;;;5083401;27;45956;-78
2022/10/09 13:37:22;;;;;;;;;2.00;2.00;;;;;;;;5081206;27;45749;-79
2022/10/09 13:39:52;;;;;;;;;4.33;2.67;;;;;;;;5086735;27;45828;-83
2022/10/09 13:42:18;;;;;;;;;5.33;4.67;;;;;;;;5062369;27;45950;-83
2022/10/09 13:44:44;;;;;;;;;3.67;2.00;;;;;;;;5093004;27;46121;-81
2022/10/09 13:47:09;;;;;;;;;3.67;3.67;;;;;;;;5075239;27;46078;-84
2022/10/09 13:49:35;;;;;;;;;5.00;3.00;;;;;;;;5072007;27;45509;-82
2022/10/09 13:52:01;;;;;;;;;4.33;4.00;;;;;;;;5078209;27;45457;-84
2022/10/09 13:54:26;;;;;;;;;2.67;2.67;;;;;;;;5093355;27;45458;-86
2022/10/09 13:56:54;;;;;;;;;3.67;3.67;;;;;;;;5096166;27;45871;-86
2022/10/09 13:59:20;;;;;;;;;3.33;3.33;;;;;;;;5082837;27;45620;-83
2022/10/09 14:01:48;;;;;;;;;4.00;3.00;;;;;;;;5089498;27;46273;-87
2022/10/09 14:04:23;;;;;;;;;4.00;4.00;;;;;;;;5088652;27;45713;-87
2022/10/09 14:06:55;;;;;;;;;3.00;3.00;;;;;;;;5100003;27;45418;-90
2022/10/09 14:09:22;;;;;;;;;4.33;3.33;;;;;;;;5072583;27;45536;-89
2022/10/09 14:11:55;;;;;;;;;1.00;1.00;;;;;;;;5090142;27;45595;-85
2022/10/09 14:14:21;;;;;;;;;3.00;2.67;;;;;;;;5086394;27;47575;-86
2022/10/09 14:17:08;;;;;;;;;2.00;2.00;;;;;;;;5080359;27;45383;-90
2022/10/09 14:19:47;;;;;;;;;4.00;4.00;;;;;;;;5085063;27;45419;-88
2022/10/09 14:22:58;;;;;;;;;2.75;1.25;;;;;;;;5094278;27;45516;-83
2022/10/09 14:25:57;;;;;;;;;1.67;1.67;;;;;;;;5059459;27;46124;-88
2022/10/09 14:28:46;;;;;;;;;6.00;3.00;;;;;;;;5080606;27;45555;-87
2022/10/09 14:34:12;;;;;;;;;5.67;3.00;;;;;;;;5076484;27;45766;-85
2022/10/09 14:36:47;;;;;;;;;4.00;2.67;;;;;;;;5088477;27;46572;-82
2022/10/09 14:39:36;;;;;;;;;4.33;3.00;;;;;;;;5093656;27;45721;-81
2022/10/09 14:42:01;;;;;;;;;0.00;0.00;;;;;;;;5065356;27;45691;-78
2022/10/09 14:44:27;;;;;;;;;3.00;3.00;;;;;;;;5083151;27;45617;-79
2022/10/09 14:47:06;;;;;;;;;5.00;4.00;;;;;;;;5087050;27;45423;-79
2022/10/09 14:49:32;;;;;;;;;5.33;4.00;;;;;;;;5074019;27;45533;-84
2022/10/09 14:52:43;;;;;;;;;;;;;;;;;;;;;
2022/10/09 14:55:38;;;;;;;;;4.00;3.00;;;;;;;;5076748;27;74116;-80
2022/10/09 14:58:07;;;;;;;;;3.00;3.00;;;;;;;;5057493;27;46339;-78
2022/10/09 15:00:35;;;;;;;;;3.00;3.00;;;;;;;;5090117;27;45488;-84
2022/10/09 15:03:03;;;;;;;;;7.33;7.33;;;;;;;;5096686;27;45639;-80
2022/10/09 15:05:34;;;;;;;;;5.00;5.00;;;;;;;;5079268;27;46574;-85
2022/10/09 15:08:00;;;;;;;;;4.00;3.67;;;;;;;;5077795;27;48133;-83